createdAt,value
2022-11-12T00:00:02.377Z,5.90
2022-11-12T00:01:24.881Z,6.47
2022-11-12T00:02:28.446Z,5.35
2022-11-12T00:03:35.299Z,5.78
2022-11-12T00:04:47.624Z,5.30
2022-11-12T00:05:53.475Z,5.30
2022-11-12T00:06:58.227Z,5.70
2022-11-12T00:08:11.094Z,4.55
2022-11-12T00:09:18.974Z,5.53
2022-11-12T00:10:23.854Z,5.43
2022-11-12T00:11:27.368Z,4.13
2022-11-12T00:12:31.837Z,5.22
2022-11-12T00:14:07.787Z,4.90
2022-11-12T00:15:13.067Z,4.90
2022-11-12T00:16:18.048Z,4.72
2022-11-12T00:17:22.008Z,5.32
2022-11-12T00:18:26.609Z,4.15
2022-11-12T00:19:30.978Z,4.88
2022-11-12T00:20:36.336Z,5.05
2022-11-12T00:21:41.871Z,4.50
2022-11-12T00:22:48.914Z,4.70
2022-11-12T00:23:52.862Z,4.78
2022-11-12T00:24:56.486Z,4.75
2022-11-12T00:26:02.448Z,4.55
2022-11-12T00:27:06.346Z,3.88
2022-11-12T00:28:12.148Z,5.43
2022-11-12T00:29:19.856Z,4.82
2022-11-12T00:30:26.529Z,5.32
2022-11-12T00:31:30.076Z,4.53
2022-11-12T00:32:37.783Z,4.32
2022-11-12T00:33:43.696Z,5.95
2022-11-12T00:34:47.879Z,5.50
2022-11-12T00:35:52.219Z,5.03
2022-11-12T00:36:56.362Z,3.78
2022-11-12T00:38:01.207Z,4.57
2022-11-12T00:39:05.267Z,4.35
2022-11-12T00:40:10.035Z,4.50
2022-11-12T00:41:13.543Z,4.85
2022-11-12T00:42:18.941Z,5.03
2022-11-12T00:43:29.871Z,4.80
2022-11-12T00:44:33.446Z,4.63
2022-11-12T00:45:38.762Z,4.60
2022-11-12T00:47:02.423Z,4.53
2022-11-12T00:48:16.078Z,4.50
2022-11-12T00:49:20.270Z,4.50
2022-11-12T00:50:25.258Z,3.90
2022-11-12T00:51:42.134Z,4.72
2022-11-12T00:52:51.538Z,4.68
2022-11-12T00:53:56.339Z,4.57
2022-11-12T00:55:00.562Z,4.57
2022-11-12T00:56:07.804Z,3.80
2022-11-12T00:57:13.175Z,4.45
2022-11-12T00:58:18.659Z,3.95
2022-11-12T00:59:25.474Z,4.38
2022-11-12T01:00:32.614Z,5.43
2022-11-12T01:01:38.735Z,5.25
2022-11-12T01:02:51.484Z,4.25
2022-11-12T01:03:57.953Z,5.10
2022-11-12T01:05:03.364Z,3.42
2022-11-12T01:06:19.243Z,3.78
2022-11-12T01:07:31.477Z,5.57
2022-11-12T01:08:51.879Z,5.32
2022-11-12T01:09:56.716Z,4.95
2022-11-12T01:11:21.354Z,4.50
2022-11-12T01:12:26.318Z,5.53
2022-11-12T01:13:30.547Z,4.97
2022-11-12T01:14:36.168Z,4.20
2022-11-12T01:15:43.216Z,5.13
2022-11-12T01:16:48.590Z,4.53
2022-11-12T01:19:28.766Z,4.30
2022-11-12T01:20:45.503Z,4.78
2022-11-12T01:21:49.614Z,4.85
2022-11-12T01:22:53.495Z,4.72
2022-11-12T01:24:04.768Z,5.53
2022-11-12T01:25:08.851Z,3.55
2022-11-12T01:26:20.774Z,4.95
2022-11-12T01:27:24.527Z,4.50
2022-11-12T01:28:29.701Z,4.00
2022-11-12T01:29:33.525Z,4.00
2022-11-12T01:30:37.893Z,4.25
2022-11-12T01:32:00.237Z,4.03
2022-11-12T01:33:03.930Z,3.97
2022-11-12T01:34:16.813Z,4.65
2022-11-12T01:35:20.646Z,4.60
2022-11-12T01:36:26.019Z,3.90
2022-11-12T01:37:30.029Z,4.65
2022-11-12T01:38:40.776Z,4.45
2022-11-12T01:39:48.771Z,4.63
2022-11-12T01:40:53.018Z,5.15
2022-11-12T01:41:57.125Z,4.35
2022-11-12T01:43:01.227Z,4.22
2022-11-12T01:44:17.265Z,4.22
2022-11-12T01:45:22.167Z,5.30
2022-11-12T01:46:30.435Z,4.88
2022-11-12T01:47:36.063Z,5.45
2022-11-12T01:48:52.649Z,4.60
2022-11-12T01:50:26.402Z,4.28
2022-11-12T01:51:40.322Z,5.00
2022-11-12T01:53:13.709Z,4.57
2022-11-12T01:54:22.121Z,4.68
2022-11-12T01:55:38.555Z,5.13
2022-11-12T01:56:42.871Z,5.30
2022-11-12T01:57:58.838Z,5.32
2022-11-12T01:59:28.028Z,5.35
2022-11-12T02:00:36.211Z,4.97
2022-11-12T02:01:49.702Z,5.50
2022-11-12T02:03:02.373Z,5.00
2022-11-12T02:04:06.886Z,5.40
2022-11-12T02:05:13.141Z,6.25
2022-11-12T02:06:19.550Z,4.28
2022-11-12T02:07:31.981Z,5.07
2022-11-12T02:08:39.593Z,5.78
2022-11-12T02:09:43.087Z,5.20
2022-11-12T02:10:46.874Z,5.50
2022-11-12T02:11:50.496Z,4.82
2022-11-12T02:13:13.893Z,5.10
2022-11-12T02:14:17.592Z,4.53
2022-11-12T02:15:21.336Z,4.80
2022-11-12T02:16:44.686Z,4.43
2022-11-12T02:17:48.273Z,4.85
2022-11-12T02:18:51.869Z,4.88
2022-11-12T02:20:03.738Z,4.05
2022-11-12T02:21:09.808Z,5.25
2022-11-12T02:22:13.924Z,5.38
2022-11-12T02:23:19.826Z,4.20
2022-11-12T02:24:23.587Z,4.88
2022-11-12T02:25:29.527Z,5.30
2022-11-12T02:26:42.132Z,5.50
2022-11-12T02:27:51.943Z,5.50
2022-11-12T02:28:55.807Z,4.85
2022-11-12T02:29:59.411Z,5.45
2022-11-12T02:31:05.156Z,5.10
2022-11-12T02:32:09.263Z,4.43
2022-11-12T02:33:13.265Z,4.97
2022-11-12T02:34:17.066Z,4.50
2022-11-12T02:35:20.755Z,5.00
2022-11-12T02:36:25.773Z,5.82
2022-11-12T02:37:29.273Z,5.25
2022-11-12T02:38:33.226Z,5.32
2022-11-12T02:39:45.456Z,5.25
2022-11-12T02:40:55.249Z,3.88
2022-11-12T02:42:12.526Z,5.05
2022-11-12T02:43:16.488Z,5.75
2022-11-12T02:44:20.598Z,6.38
2022-11-12T02:45:24.977Z,5.65
2022-11-12T02:46:34.910Z,5.20
2022-11-12T02:47:43.182Z,4.50
2022-11-12T02:48:49.669Z,4.40
2022-11-12T02:49:53.490Z,5.63
2022-11-12T02:50:57.131Z,5.57
2022-11-12T02:52:01.183Z,5.35
2022-11-12T02:53:05.538Z,5.13
2022-11-12T02:54:09.900Z,5.00
2022-11-12T02:55:14.440Z,4.78
2022-11-12T02:56:18.450Z,6.63
2022-11-12T02:57:23.228Z,6.03
2022-11-12T02:58:28.928Z,4.82
2022-11-12T02:59:36.994Z,3.70
2022-11-12T03:00:50.918Z,5.25
2022-11-12T03:02:07.123Z,5.60
2022-11-12T03:03:12.527Z,5.80
2022-11-12T03:04:19.827Z,6.55
2022-11-12T03:05:35.194Z,4.43
2022-11-12T03:06:47.145Z,5.88
2022-11-12T03:07:51.255Z,6.38
2022-11-12T03:08:58.116Z,5.38
2022-11-12T03:10:02.976Z,5.20
2022-11-12T03:11:14.506Z,6.00
2022-11-12T03:12:27.313Z,5.75
2022-11-12T03:13:31.426Z,6.40
2022-11-12T03:14:36.695Z,6.30
2022-11-12T03:15:41.156Z,6.32
2022-11-12T03:16:47.665Z,5.43
2022-11-12T03:17:51.923Z,5.45
2022-11-12T03:18:58.991Z,6.55
2022-11-12T03:20:07.841Z,5.72
2022-11-12T03:21:15.136Z,5.43
2022-11-12T03:22:22.649Z,5.03
2022-11-12T03:23:29.344Z,5.88
2022-11-12T03:24:32.921Z,5.18
2022-11-12T03:25:37.631Z,5.03
2022-11-12T03:26:41.261Z,5.60
2022-11-12T03:27:45.057Z,5.50
2022-11-12T03:28:50.976Z,6.13
2022-11-12T03:29:54.610Z,5.18
2022-11-12T03:31:00.882Z,5.78
2022-11-12T03:32:04.983Z,5.03
2022-11-12T03:33:12.048Z,5.75
2022-11-12T03:34:16.979Z,5.05
2022-11-12T03:35:24.961Z,5.47
2022-11-12T03:36:28.868Z,4.65
2022-11-12T03:37:33.589Z,6.35
2022-11-12T03:38:37.637Z,5.35
2022-11-12T03:39:45.321Z,6.43
2022-11-12T03:40:49.844Z,5.68
2022-11-12T03:41:53.423Z,5.45
2022-11-12T03:42:57.337Z,5.80
2022-11-12T03:44:07.366Z,5.78
2022-11-12T03:45:15.247Z,5.38
2022-11-12T03:46:19.209Z,6.68
2022-11-12T03:47:52.245Z,5.45
2022-11-12T03:48:55.821Z,5.80
2022-11-12T03:49:59.583Z,6.28
2022-11-12T03:51:03.462Z,6.70
2022-11-12T03:52:06.975Z,6.10
2022-11-12T03:53:11.774Z,4.68
2022-11-12T03:54:15.711Z,6.70
2022-11-12T03:55:22.785Z,5.60
2022-11-12T03:56:27.628Z,6.53
2022-11-12T03:57:32.439Z,4.78
2022-11-12T03:58:57.438Z,5.55
2022-11-12T04:00:15.237Z,5.18
2022-11-12T04:01:21.946Z,5.10
2022-11-12T04:02:30.548Z,4.38
2022-11-12T04:03:46.024Z,4.35
2022-11-12T04:05:16.672Z,5.40
2022-11-12T04:06:40.005Z,5.35
2022-11-12T04:08:41.004Z,4.60
2022-11-12T04:09:49.106Z,5.68
2022-11-12T04:10:53.098Z,5.10
2022-11-12T04:12:16.953Z,5.70
2022-11-12T04:13:30.418Z,5.75
2022-11-12T04:14:34.956Z,5.15
2022-11-12T04:15:38.881Z,5.18
2022-11-12T04:17:18.764Z,6.85
2022-11-12T04:18:41.397Z,5.93
2022-11-12T04:20:03.785Z,5.63
2022-11-12T04:21:27.799Z,6.88
2022-11-12T04:22:31.496Z,5.97
2022-11-12T04:23:36.774Z,5.72
2022-11-12T04:25:04.722Z,5.70
2022-11-12T04:26:25.439Z,6.55
2022-11-12T04:27:35.282Z,6.20
2022-11-12T04:29:09.456Z,5.80
2022-11-12T04:30:19.758Z,5.75
2022-11-12T04:31:47.125Z,6.45
2022-11-12T04:32:57.038Z,7.43
2022-11-12T04:34:32.971Z,6.32
2022-11-12T04:35:37.369Z,6.13
2022-11-12T04:36:49.057Z,6.65
2022-11-12T04:37:53.424Z,6.70
2022-11-12T04:38:56.942Z,5.38
2022-11-12T04:40:22.445Z,6.43
2022-11-12T04:41:45.947Z,6.25
2022-11-12T04:43:11.203Z,6.80
2022-11-12T04:44:43.572Z,6.00
2022-11-12T04:45:53.562Z,5.82
2022-11-12T04:47:02.613Z,6.28
2022-11-12T04:48:07.175Z,6.18
2022-11-12T04:49:14.398Z,6.78
2022-11-12T04:50:19.582Z,6.60
2022-11-12T04:51:44.520Z,5.97
2022-11-12T04:52:53.095Z,6.47
2022-11-12T04:54:03.768Z,6.80
2022-11-12T04:55:21.256Z,5.00
2022-11-12T04:56:32.559Z,5.63
2022-11-12T04:59:03.386Z,6.15
2022-11-12T05:00:27.238Z,7.10
2022-11-12T05:02:01.015Z,5.63
2022-11-12T05:03:13.071Z,7.68
2022-11-12T05:04:28.185Z,7.30
2022-11-12T05:05:34.215Z,6.20
2022-11-12T05:06:59.631Z,6.88
2022-11-12T05:08:05.304Z,6.32
2022-11-12T05:09:14.716Z,6.28
2022-11-12T05:10:23.325Z,6.38
2022-11-12T05:11:27.346Z,6.95
2022-11-12T05:12:32.556Z,7.50
2022-11-12T05:13:36.264Z,7.10
2022-11-12T05:14:45.900Z,7.35
2022-11-12T05:15:51.444Z,6.22
2022-11-12T05:17:01.558Z,5.72
2022-11-12T05:18:06.166Z,6.28
2022-11-12T05:19:11.600Z,7.28
2022-11-12T05:20:17.663Z,4.85
2022-11-12T05:21:44.475Z,7.32
2022-11-12T05:23:05.038Z,7.03
2022-11-12T05:24:41.045Z,8.38
2022-11-12T05:25:52.263Z,8.73
2022-11-12T05:26:57.240Z,8.30
2022-11-12T05:28:03.640Z,7.60
2022-11-12T05:29:13.164Z,8.00
2022-11-12T05:30:20.822Z,7.93
2022-11-12T05:31:24.605Z,6.68
2022-11-12T05:32:31.498Z,6.88
2022-11-12T05:33:36.359Z,6.38
2022-11-12T05:34:43.119Z,7.43
2022-11-12T05:35:50.691Z,5.95
2022-11-12T05:36:56.311Z,6.43
2022-11-12T05:38:01.459Z,6.97
2022-11-12T05:39:05.497Z,7.53
2022-11-12T05:40:10.288Z,6.93
2022-11-12T05:41:19.971Z,6.22
2022-11-12T05:42:25.888Z,7.72
2022-11-12T05:43:32.788Z,8.00
2022-11-12T05:44:36.917Z,6.07
2022-11-12T05:45:45.810Z,6.22
2022-11-12T05:46:56.433Z,6.93
2022-11-12T05:48:01.134Z,6.90
2022-11-12T05:49:07.891Z,8.68
2022-11-12T05:50:18.969Z,6.03
2022-11-12T05:51:22.796Z,6.53
2022-11-12T05:52:33.934Z,6.88
2022-11-12T05:53:38.121Z,6.35
2022-11-12T05:54:42.337Z,6.43
2022-11-12T05:55:48.516Z,7.22
2022-11-12T05:56:57.468Z,5.40
2022-11-12T05:58:14.233Z,6.43
2022-11-12T05:59:18.176Z,7.22
2022-11-12T06:00:23.715Z,6.28
2022-11-12T06:01:32.102Z,7.00
2022-11-12T06:02:36.278Z,6.60
2022-11-12T06:03:43.414Z,7.90
2022-11-12T06:04:46.903Z,5.20
2022-11-12T06:05:54.287Z,5.10
2022-11-12T06:06:58.113Z,5.95
2022-11-12T06:08:04.077Z,6.82
2022-11-12T06:09:08.971Z,7.20
2022-11-12T06:10:17.523Z,7.50
2022-11-12T06:11:23.906Z,5.60
2022-11-12T06:12:28.119Z,6.53
2022-11-12T06:13:31.857Z,6.13
2022-11-12T06:14:35.670Z,7.30
2022-11-12T06:15:39.652Z,6.18
2022-11-12T06:16:43.203Z,6.53
2022-11-12T06:17:47.193Z,6.97
2022-11-12T06:18:50.985Z,6.22
2022-11-12T06:19:55.778Z,6.95
2022-11-12T06:21:23.768Z,7.13
2022-11-12T06:22:27.260Z,7.80
2022-11-12T06:23:31.072Z,8.27
2022-11-12T06:24:35.700Z,6.63
2022-11-12T06:25:40.655Z,7.25
2022-11-12T06:26:45.782Z,5.80
2022-11-12T06:27:49.788Z,7.35
2022-11-12T06:28:58.175Z,6.95
2022-11-12T06:30:01.878Z,5.97
2022-11-12T06:31:05.915Z,7.93
2022-11-12T06:32:09.811Z,5.75
2022-11-12T06:33:13.511Z,7.65
2022-11-12T06:34:19.225Z,7.22
2022-11-12T06:35:23.734Z,6.72
2022-11-12T06:36:27.788Z,6.80
2022-11-12T06:37:31.515Z,5.57
2022-11-12T06:38:39.713Z,5.70
2022-11-12T06:39:46.871Z,6.40
2022-11-12T06:41:05.353Z,7.20
2022-11-12T06:42:26.851Z,7.55
2022-11-12T06:43:35.540Z,6.50
2022-11-12T06:44:42.235Z,7.38
2022-11-12T06:45:50.024Z,7.60
2022-11-12T06:47:00.054Z,6.25
2022-11-12T06:48:14.189Z,6.80
2022-11-12T06:49:36.244Z,7.22
2022-11-12T06:50:44.710Z,8.38
2022-11-12T06:52:00.921Z,7.10
2022-11-12T06:53:07.448Z,6.55
2022-11-12T06:54:11.628Z,7.00
2022-11-12T06:55:16.742Z,6.32
2022-11-12T06:56:21.837Z,6.95
2022-11-12T06:57:26.649Z,6.72
2022-11-12T06:58:30.849Z,6.35
2022-11-12T06:59:34.855Z,5.72
2022-11-12T07:00:45.272Z,6.20
2022-11-12T07:01:49.358Z,6.35
2022-11-12T07:02:54.605Z,6.30
2022-11-12T07:04:05.155Z,6.03
2022-11-12T07:05:32.529Z,6.70
2022-11-12T07:06:45.890Z,5.93
2022-11-12T07:07:57.436Z,7.20
2022-11-12T07:09:05.377Z,5.90
2022-11-12T07:10:25.400Z,5.97
2022-11-12T07:11:35.700Z,7.43
2022-11-12T07:12:50.464Z,7.28
2022-11-12T07:14:01.807Z,5.63
2022-11-12T07:15:09.120Z,5.68
2022-11-12T07:16:24.935Z,8.18
2022-11-12T07:17:40.758Z,6.70
2022-11-12T07:18:51.202Z,7.53
2022-11-12T07:19:58.200Z,5.90
2022-11-12T07:21:23.892Z,7.35
2022-11-12T07:22:35.101Z,7.55
2022-11-12T07:23:41.358Z,6.50
2022-11-12T07:24:54.630Z,7.63
2022-11-12T07:26:21.955Z,6.47
2022-11-12T07:27:26.123Z,6.65
2022-11-12T07:28:31.308Z,6.30
2022-11-12T07:29:47.703Z,6.50
2022-11-12T07:31:13.951Z,6.90
2022-11-12T07:32:26.683Z,6.50
2022-11-12T07:33:33.132Z,5.82
2022-11-12T07:34:40.368Z,6.43
2022-11-12T07:35:43.964Z,6.53
2022-11-12T07:36:52.918Z,7.90
2022-11-12T07:38:12.475Z,5.97
2022-11-12T07:39:21.742Z,8.07
2022-11-12T07:40:25.836Z,6.65
2022-11-12T07:41:30.695Z,7.10
2022-11-12T07:42:45.339Z,6.93
2022-11-12T07:43:56.230Z,7.63
2022-11-12T07:45:07.972Z,6.50
2022-11-12T07:46:24.527Z,6.65
2022-11-12T07:47:28.489Z,6.97
2022-11-12T07:48:33.547Z,6.05
2022-11-12T07:49:37.768Z,6.47
2022-11-12T07:50:42.292Z,7.05
2022-11-12T07:51:46.086Z,7.50
2022-11-12T07:52:54.026Z,6.15
2022-11-12T07:55:21.912Z,6.65
2022-11-12T07:56:29.500Z,6.78
2022-11-12T07:57:43.067Z,7.63
2022-11-12T07:58:48.874Z,6.90
2022-11-12T07:59:56.251Z,5.70
2022-11-12T08:01:32.019Z,6.63
2022-11-12T08:02:36.100Z,7.07
2022-11-12T08:03:54.125Z,7.57
2022-11-12T08:05:08.536Z,8.05
2022-11-12T08:06:25.042Z,5.75
2022-11-12T08:07:38.694Z,7.15
2022-11-12T08:08:45.680Z,7.45
2022-11-12T08:09:50.261Z,6.07
2022-11-12T08:10:59.056Z,5.90
2022-11-12T08:12:02.579Z,6.25
2022-11-12T08:13:06.446Z,7.57
2022-11-12T08:14:09.937Z,7.53
2022-11-12T08:15:13.663Z,7.10
2022-11-12T08:16:18.180Z,6.20
2022-11-12T08:17:21.733Z,6.07
2022-11-12T08:18:27.038Z,6.90
2022-11-12T08:19:31.051Z,8.65
2022-11-12T08:20:34.522Z,6.40
2022-11-12T08:21:39.723Z,6.63
2022-11-12T08:22:49.605Z,7.40
2022-11-12T08:23:53.522Z,7.13
2022-11-12T08:25:00.531Z,8.90
2022-11-12T08:26:12.804Z,7.43
2022-11-12T08:27:22.067Z,7.15
2022-11-12T08:28:27.947Z,6.47
2022-11-12T08:29:32.950Z,6.65
2022-11-12T08:30:36.525Z,5.95
2022-11-12T08:31:40.172Z,5.90
2022-11-12T08:32:43.757Z,7.20
2022-11-12T08:33:47.449Z,6.15
2022-11-12T08:34:51.154Z,7.03
2022-11-12T08:35:54.684Z,5.63
2022-11-12T08:36:58.237Z,5.80
2022-11-12T08:38:05.207Z,6.85
2022-11-12T08:39:09.139Z,6.47
2022-11-12T08:40:13.445Z,5.35
2022-11-12T08:41:17.795Z,5.95
2022-11-12T08:42:23.896Z,6.47
2022-11-12T08:43:28.216Z,6.22
2022-11-12T08:44:31.823Z,6.53
2022-11-12T08:45:39.235Z,5.90
2022-11-12T08:46:42.718Z,6.32
2022-11-12T08:47:46.218Z,6.40
2022-11-12T08:48:50.013Z,6.10
2022-11-12T08:49:56.461Z,5.35
2022-11-12T08:51:18.132Z,6.30
2022-11-12T08:52:29.578Z,6.68
2022-11-12T08:53:34.720Z,6.30
2022-11-12T08:54:51.318Z,5.88
2022-11-12T08:55:59.023Z,6.00
2022-11-12T08:57:03.692Z,6.25
2022-11-12T08:58:13.632Z,5.88
2022-11-12T08:59:18.477Z,6.38
2022-11-12T09:00:23.317Z,6.78
2022-11-12T09:01:27.151Z,6.53
2022-11-12T09:02:35.346Z,6.95
2022-11-12T09:03:42.515Z,5.97
2022-11-12T09:04:46.924Z,6.80
2022-11-12T09:05:55.051Z,5.25
2022-11-12T09:07:01.542Z,6.32
2022-11-12T09:08:15.759Z,5.18
2022-11-12T09:09:27.999Z,6.38
2022-11-12T09:10:37.630Z,5.18
2022-11-12T09:11:48.877Z,5.05
2022-11-12T09:12:57.292Z,6.30
2022-11-12T09:15:39.920Z,6.22
2022-11-12T09:16:45.610Z,4.95
2022-11-12T09:18:00.570Z,5.95
2022-11-12T09:19:05.876Z,7.13
2022-11-12T09:20:19.241Z,6.90
2022-11-12T09:21:25.315Z,6.40
2022-11-12T09:22:29.690Z,5.55
2022-11-12T09:23:39.804Z,4.72
2022-11-12T09:24:45.482Z,6.15
2022-11-12T09:25:50.369Z,4.88
2022-11-12T09:26:55.434Z,6.00
2022-11-12T09:28:16.767Z,5.57
2022-11-12T09:29:21.739Z,6.65
2022-11-12T09:30:26.223Z,5.53
2022-11-12T09:31:33.117Z,5.07
2022-11-12T09:32:37.023Z,5.75
2022-11-12T09:33:40.616Z,5.75
2022-11-12T09:34:44.356Z,5.88
2022-11-12T09:35:52.647Z,5.15
2022-11-12T09:36:58.436Z,6.30
2022-11-12T09:38:02.767Z,4.43
2022-11-12T09:39:07.845Z,6.40
2022-11-12T09:40:20.113Z,5.22
2022-11-12T09:41:41.958Z,5.53
2022-11-12T09:42:59.985Z,5.55
2022-11-12T09:44:18.489Z,4.88
2022-11-12T09:45:31.712Z,5.22
2022-11-12T09:47:02.644Z,4.88
2022-11-12T09:48:16.934Z,5.53
2022-11-12T09:49:56.900Z,6.68
2022-11-12T09:51:15.090Z,5.18
2022-11-12T09:52:30.076Z,5.30
2022-11-12T09:53:57.160Z,6.28
2022-11-12T09:55:24.623Z,5.82
2022-11-12T09:56:34.738Z,5.15
2022-11-12T09:57:39.585Z,5.03
2022-11-12T09:58:44.767Z,4.60
2022-11-12T09:59:49.821Z,5.05
2022-11-12T10:01:13.577Z,4.93
2022-11-12T10:02:40.963Z,4.90
2022-11-12T10:03:48.725Z,5.32
2022-11-12T10:05:14.188Z,5.47
2022-11-12T10:06:26.704Z,4.60
2022-11-12T10:07:58.252Z,4.35
2022-11-12T10:09:35.663Z,5.00
2022-11-12T10:10:49.042Z,4.63
2022-11-12T10:12:39.408Z,3.28
2022-11-12T10:14:13.583Z,5.32
2022-11-12T10:16:18.422Z,5.75
2022-11-12T10:17:57.729Z,4.95
2022-11-12T10:19:31.236Z,4.65
2022-11-12T10:20:55.590Z,5.68
2022-11-12T10:22:12.969Z,4.00
2022-11-12T10:23:58.629Z,4.13
2022-11-12T10:25:36.963Z,5.55
2022-11-12T10:26:48.715Z,4.25
2022-11-12T10:27:57.624Z,4.82
2022-11-12T10:29:31.827Z,4.95
2022-11-12T10:30:39.998Z,3.92
2022-11-12T10:31:45.375Z,3.20
2022-11-12T10:32:53.022Z,4.28
2022-11-12T10:34:19.431Z,3.78
2022-11-12T10:35:24.456Z,3.45
2022-11-12T10:36:40.241Z,3.78
2022-11-12T10:38:01.271Z,3.58
2022-11-12T10:39:17.250Z,2.75
2022-11-12T10:40:40.182Z,3.22
2022-11-12T10:42:29.333Z,3.45
2022-11-12T10:43:36.936Z,2.83
2022-11-12T10:44:47.368Z,3.92
2022-11-12T10:46:29.757Z,3.25
2022-11-12T10:47:54.088Z,4.25
2022-11-12T10:49:29.735Z,4.03
2022-11-12T10:50:46.483Z,3.00
2022-11-12T10:52:01.355Z,4.28
2022-11-12T10:53:18.276Z,3.25
2022-11-12T10:54:40.339Z,4.47
2022-11-12T10:56:08.620Z,3.05
2022-11-12T10:57:32.235Z,3.45
2022-11-12T10:58:45.189Z,2.97
2022-11-12T11:00:26.528Z,3.33
2022-11-12T11:01:44.448Z,2.50
2022-11-12T11:03:00.332Z,2.67
2022-11-12T11:04:34.122Z,2.75
2022-11-12T11:05:59.926Z,3.13
2022-11-12T11:07:27.376Z,3.67
2022-11-12T11:08:53.422Z,3.88
2022-11-12T11:10:37.029Z,2.83
2022-11-12T11:11:57.633Z,3.05
2022-11-12T11:13:38.743Z,3.75
2022-11-12T11:14:59.785Z,3.30
2022-11-12T11:16:25.080Z,4.07
2022-11-12T11:17:32.346Z,2.88
2022-11-12T11:19:01.969Z,3.20
2022-11-12T11:20:36.166Z,2.53
2022-11-12T11:22:42.115Z,3.28
2022-11-12T11:24:49.616Z,2.13
2022-11-12T11:26:26.825Z,2.65
2022-11-12T11:27:42.628Z,2.95
2022-11-12T11:29:28.143Z,2.40
2022-11-12T11:30:52.428Z,3.08
2022-11-12T11:32:49.730Z,3.20
2022-11-12T11:34:25.613Z,2.53
2022-11-12T11:36:57.169Z,2.40
2022-11-12T11:38:48.590Z,2.10
2022-11-12T11:40:26.797Z,2.50
2022-11-12T11:42:44.317Z,2.67
2022-11-12T11:44:31.579Z,2.40
2022-11-12T11:46:03.718Z,3.65
2022-11-12T11:48:00.409Z,2.85
2022-11-12T11:49:45.066Z,2.58
2022-11-12T11:51:31.772Z,3.03
2022-11-12T11:53:16.170Z,2.40
2022-11-12T11:54:50.588Z,3.40
2022-11-12T11:56:22.123Z,3.63
2022-11-12T11:58:02.759Z,2.47
2022-11-12T12:00:02.502Z,2.40
2022-11-12T12:01:35.035Z,2.83
2022-11-12T12:03:23.111Z,2.53
2022-11-12T12:04:48.566Z,1.90
2022-11-12T12:06:21.618Z,2.80
2022-11-12T12:08:17.162Z,1.95
2022-11-12T12:09:38.580Z,2.47
2022-11-12T12:11:08.057Z,2.05
2022-11-12T12:12:22.829Z,2.47
2022-11-12T12:13:53.083Z,2.13
2022-11-12T12:15:33.168Z,2.33
2022-11-12T12:17:19.940Z,2.67
2022-11-12T12:19:12.770Z,3.05
2022-11-12T12:21:05.579Z,2.00
2022-11-12T12:22:32.677Z,2.63
2022-11-12T12:23:59.296Z,3.35
2022-11-12T12:25:30.913Z,3.55
2022-11-12T12:27:11.013Z,2.90
2022-11-12T12:28:47.156Z,2.95
2022-11-12T12:30:18.055Z,2.92
2022-11-12T12:31:38.405Z,2.65
2022-11-12T12:33:08.894Z,3.35
2022-11-12T12:34:37.501Z,3.72
2022-11-12T12:36:34.913Z,2.75
2022-11-12T12:37:50.003Z,3.17
2022-11-12T12:39:27.814Z,2.53
2022-11-12T12:41:14.377Z,3.78
2022-11-12T12:43:12.882Z,3.10
2022-11-12T12:44:23.260Z,2.75
2022-11-12T12:46:29.236Z,2.55
2022-11-12T12:47:48.237Z,2.80
2022-11-12T12:49:01.794Z,3.88
2022-11-12T12:50:26.276Z,2.88
2022-11-12T12:51:45.385Z,4.88
2022-11-12T12:53:18.728Z,3.90
2022-11-12T12:55:10.500Z,3.97
2022-11-12T12:56:32.666Z,3.03
2022-11-12T12:57:42.316Z,2.78
2022-11-12T12:59:04.766Z,4.35
2022-11-12T13:00:39.845Z,3.55
2022-11-12T13:02:13.759Z,4.15
2022-11-12T13:03:50.267Z,2.80
2022-11-12T13:04:59.281Z,3.20
2022-11-12T13:06:36.255Z,2.70
2022-11-12T13:07:50.323Z,2.95
2022-11-12T13:09:20.813Z,3.67
2022-11-12T13:10:44.220Z,3.15
2022-11-12T13:12:15.470Z,4.07
2022-11-12T13:13:26.353Z,4.22
2022-11-12T13:14:38.052Z,3.97
2022-11-12T13:15:55.376Z,4.45
2022-11-12T13:17:08.456Z,3.20
2022-11-12T13:18:57.711Z,3.42
2022-11-12T13:20:19.201Z,3.35
2022-11-12T13:21:23.403Z,2.55
2022-11-12T13:22:27.026Z,3.45
2022-11-12T13:24:09.402Z,3.10
2022-11-12T13:25:17.113Z,3.28
2022-11-12T13:26:43.912Z,3.35
2022-11-12T13:27:48.066Z,2.20
2022-11-12T13:29:39.873Z,3.65
2022-11-12T13:30:44.064Z,4.05
2022-11-12T13:32:34.150Z,3.20
2022-11-12T13:33:39.075Z,3.42
2022-11-12T13:34:45.355Z,4.18
2022-11-12T13:36:41.497Z,3.92
2022-11-12T13:38:12.644Z,3.10
2022-11-12T13:39:20.568Z,2.83
2022-11-12T13:41:07.535Z,2.83
2022-11-12T13:42:42.087Z,2.45
2022-11-12T13:43:49.860Z,2.95
2022-11-12T13:44:57.154Z,3.08
2022-11-12T13:46:31.846Z,3.15
2022-11-12T13:47:40.727Z,2.60
2022-11-12T13:49:25.977Z,3.22
2022-11-12T13:50:39.316Z,3.38
2022-11-12T13:51:54.047Z,2.60
2022-11-12T13:53:01.517Z,3.38
2022-11-12T13:54:45.108Z,2.92
2022-11-12T13:55:54.349Z,2.10
2022-11-12T13:57:30.122Z,3.20
2022-11-12T13:58:37.024Z,2.72
2022-11-12T13:59:48.730Z,2.95
2022-11-12T14:01:11.030Z,2.38
2022-11-12T14:02:27.477Z,3.53
2022-11-12T14:03:41.634Z,3.42
2022-11-12T14:04:46.333Z,3.08
2022-11-12T14:05:52.295Z,3.38
2022-11-12T14:07:39.123Z,3.03
2022-11-12T14:09:35.576Z,3.67
2022-11-12T14:10:58.821Z,2.50
2022-11-12T14:12:39.018Z,3.72
2022-11-12T14:14:19.179Z,3.72
2022-11-12T14:15:31.711Z,3.15
2022-11-12T14:17:03.628Z,2.58
2022-11-12T14:18:25.881Z,2.38
2022-11-12T14:20:12.537Z,3.28
2022-11-12T14:21:25.239Z,3.05
2022-11-12T14:22:43.127Z,2.75
2022-11-12T14:23:50.752Z,3.35
2022-11-12T14:25:02.391Z,2.78
2022-11-12T14:26:06.563Z,2.75
2022-11-12T14:27:29.059Z,2.67
2022-11-12T14:28:37.264Z,2.78
2022-11-12T14:29:43.775Z,2.85
2022-11-12T14:30:52.335Z,2.30
2022-11-12T14:32:09.290Z,3.55
2022-11-12T14:33:26.756Z,2.67
2022-11-12T14:34:35.205Z,2.53
2022-11-12T14:35:40.485Z,2.97
2022-11-12T14:36:51.447Z,3.00
2022-11-12T14:38:26.653Z,1.90
2022-11-12T14:39:32.654Z,2.30
2022-11-12T14:41:01.045Z,2.30
2022-11-12T14:42:22.895Z,2.53
2022-11-12T14:43:47.334Z,3.50
2022-11-12T14:44:52.206Z,2.10
2022-11-12T14:46:05.482Z,2.42
2022-11-12T14:47:18.461Z,2.95
2022-11-12T14:48:23.216Z,2.10
2022-11-12T14:50:01.861Z,2.20
2022-11-12T14:51:11.985Z,2.13
2022-11-12T14:52:30.323Z,2.17
2022-11-12T14:53:56.212Z,2.63
2022-11-12T14:55:28.069Z,2.60
2022-11-12T14:56:36.752Z,2.33
2022-11-12T14:57:49.317Z,2.05
2022-11-12T14:58:56.200Z,2.40
2022-11-12T15:00:39.869Z,2.15
2022-11-12T15:02:29.575Z,3.15
2022-11-12T15:03:35.518Z,2.15
2022-11-12T15:04:51.357Z,2.60
2022-11-12T15:06:13.838Z,3.10
2022-11-12T15:07:56.951Z,2.45
2022-11-12T15:09:03.888Z,3.83
2022-11-12T15:10:38.765Z,3.97
2022-11-12T15:11:50.030Z,2.50
2022-11-12T15:13:12.524Z,2.05
2022-11-12T15:14:28.506Z,2.55
2022-11-12T15:16:18.813Z,2.38
2022-11-12T15:17:39.043Z,4.60
2022-11-12T15:19:11.154Z,2.65
2022-11-12T15:20:21.989Z,2.97
2022-11-12T15:21:29.578Z,2.28
2022-11-12T15:22:38.960Z,2.95
2022-11-12T15:23:57.181Z,2.95
2022-11-12T15:26:13.201Z,3.05
2022-11-12T15:27:42.640Z,2.58
2022-11-12T15:29:10.607Z,3.08
2022-11-12T15:30:55.550Z,2.47
2022-11-12T15:32:34.212Z,3.45
2022-11-12T15:33:50.075Z,3.15
2022-11-12T15:35:13.043Z,2.50
2022-11-12T15:36:27.962Z,3.78
2022-11-12T15:37:43.952Z,2.63
2022-11-12T15:38:58.201Z,2.80
2022-11-12T15:40:23.802Z,3.45
2022-11-12T15:41:34.939Z,2.50
2022-11-12T15:42:51.417Z,2.80
2022-11-12T15:43:56.020Z,2.83
2022-11-12T15:45:26.171Z,3.22
2022-11-12T15:46:42.191Z,2.70
2022-11-12T15:47:48.311Z,3.25
2022-11-12T15:48:55.948Z,2.78
2022-11-12T22:20:22.369Z,8.55
2022-11-12T22:21:39.501Z,6.57
2022-11-12T22:22:43.768Z,7.20
2022-11-12T22:23:47.531Z,7.63
2022-11-12T22:24:51.247Z,6.25
2022-11-12T22:25:58.122Z,5.90
2022-11-12T22:27:05.415Z,5.72
2022-11-12T22:28:09.911Z,6.93
2022-11-12T22:29:13.396Z,6.50
2022-11-12T22:30:17.186Z,7.15
2022-11-12T22:31:30.885Z,7.57
2022-11-12T22:32:34.526Z,6.15
2022-11-12T22:33:39.477Z,7.38
2022-11-12T22:34:48.313Z,6.55
2022-11-12T22:35:52.933Z,7.60
2022-11-12T22:36:59.670Z,7.47
2022-11-12T22:38:03.484Z,7.85
2022-11-12T22:39:07.483Z,6.80
2022-11-12T22:40:13.580Z,6.65
2022-11-12T22:41:30.434Z,6.80
2022-11-12T22:42:34.689Z,7.10
2022-11-12T22:43:38.721Z,5.45
2022-11-12T22:44:42.324Z,7.05
2022-11-12T22:45:45.801Z,5.82
2022-11-12T22:46:49.648Z,7.30
2022-11-12T22:47:53.616Z,7.43
2022-11-12T22:48:59.317Z,7.93
2022-11-12T22:50:07.250Z,6.25
2022-11-12T22:51:22.990Z,6.38
2022-11-12T22:52:26.776Z,7.22
2022-11-12T22:53:31.622Z,7.68
2022-11-12T22:54:36.307Z,7.70
2022-11-12T22:55:40.472Z,6.43
2022-11-12T22:56:53.494Z,5.97
2022-11-12T22:58:00.492Z,6.45
2022-11-12T22:59:11.527Z,7.95
2022-11-12T23:00:38.872Z,7.28
2022-11-12T23:01:44.108Z,6.90
2022-11-12T23:03:00.496Z,7.13
2022-11-12T23:04:07.540Z,6.93
2022-11-12T23:05:15.574Z,6.70